»·PEaware :: N604S KMRY-KLAS

N604S :: KMRY-KLAS

FLIGHT INFORMATION

Flight Status: Arrived
Operator: Privately registered:
United States
More flights under this callsign
Pilot: Andy P. (22680)
Aircraft: GATES LEARJET LEARJET 35/36
(LJ35)
More flights by this aircraft type
Origin: KMRY Monterey Peninsula
United States
Destination: KLAS McCarran Intl
United States
More flights between these airports :: More routes between these airports
Route: +MRY5 SHOEY SNS PXN NTELL BIH LIDAT BTY SUNST4
File this flight plan on PilotEdge
Remarks:
Altitude:
(Current/Filed)
35,000ft
Speed:
(Current/Filed)
465kts
Departed: 23-May-20 12:28 PM
Arrived: 23-May-20 01:28 PM
Distance/Time
Traveled:
324nm/1:00
Distance/Time
To Go:
Arrived

Flight Plot

Page will automatically refresh every two minutes.


Map Options




Map Legend


Flown Route
Filed Route
Departure Airport
Arrival Airport
Navaid (VOR, NDB)
Fix

Horizontal Profiles

Position Reports

Time Latitude Longitude Heading Altitude Ground
Speed
23-May-20 11:58 36.589337 -121.857861 343 208ft 0kts
23-May-20 11:59 36.589337 -121.857861 343 208ft 0kts
23-May-20 12:00 36.589337 -121.857861 343 208ft 0kts
23-May-20 12:01 36.589337 -121.857861 343 208ft 0kts
23-May-20 12:02 36.589337 -121.857861 343 208ft 0kts
23-May-20 12:03 36.589337 -121.857861 343 208ft 0kts
23-May-20 12:04 36.589337 -121.857861 343 208ft 0kts
23-May-20 12:05 36.589337 -121.857861 343 208ft 0kts
23-May-20 12:06 36.589337 -121.857861 343 208ft 0kts
23-May-20 12:07 36.589337 -121.857861 343 208ft 0kts
23-May-20 12:08 36.589337 -121.857861 343 208ft 0kts
23-May-20 12:09 36.589337 -121.857861 343 208ft 0kts
23-May-20 12:10 36.589337 -121.857861 343 208ft 0kts
23-May-20 12:11 36.589337 -121.857861 343 208ft 0kts
23-May-20 12:12 36.589337 -121.857861 343 208ft 0kts
23-May-20 12:13 36.589337 -121.857861 343 208ft 0kts
23-May-20 12:14 36.589337 -121.857861 343 208ft 0kts
23-May-20 12:15 36.589337 -121.857861 343 208ft 0kts
23-May-20 12:16 36.589337 -121.857861 343 208ft 0kts
23-May-20 12:17 36.589337 -121.857861 343 208ft 0kts
23-May-20 12:18 36.589337 -121.857861 343 208ft 0kts
23-May-20 12:19 36.589337 -121.857861 343 208ft 0kts
23-May-20 12:20 36.589338 -121.857861 343 208ft 0kts
23-May-20 12:21 36.589340 -121.857862 343 208ft 0kts
23-May-20 12:22 36.589467 -121.857876 13 208ft 7kts
23-May-20 12:23 36.588989 -121.852680 114 208ft 25kts
23-May-20 12:24 36.585695 -121.843376 113 208ft 29kts
23-May-20 12:25 36.582984 -121.835351 106 208ft 18kts
23-May-20 12:26 36.582919 -121.835046 99 208ft 0kts
23-May-20 12:27 36.589274 -121.851013 294 310ft 170kts
23-May-20 12:28 36.623159 -121.895111 342 2523ft 188kts
23-May-20 12:29 36.674108 -121.915249 345 5205ft 199kts
23-May-20 12:30 36.715039 -121.956508 290 8039ft 213kts
23-May-20 12:31 36.729684 -122.033952 282 10997ft 252kts
23-May-20 12:32 36.744951 -122.130392 285 13778ft 293kts
23-May-20 12:33 36.802194 -122.184015 5 16735ft 288kts
23-May-20 12:34 36.844493 -122.099863 85 18908ft 348kts
23-May-20 12:35 36.843406 -121.969869 82 19066ft 398kts
23-May-20 12:36 36.848059 -121.827631 81 19957ft 414kts
23-May-20 12:37 36.852999 -121.682566 81 21757ft 420kts
23-May-20 12:38 36.857817 -121.536813 81 23554ft 422kts
23-May-20 12:39 36.862495 -121.389387 81 25353ft 426kts
23-May-20 12:40 36.866993 -121.241811 80 27152ft 426kts
23-May-20 12:41 36.871393 -121.092063 80 28957ft 434kts
23-May-20 12:42 36.875573 -120.941528 79 30758ft 431kts
23-May-20 12:43 36.879523 -120.793156 78 32553ft 422kts
23-May-20 12:44 36.883231 -120.648128 78 34347ft 416kts
23-May-20 12:45 36.886928 -120.500591 79 35016ft 440kts
23-May-20 12:46 36.890553 -120.342978 79 35025ft 464kts
23-May-20 12:47 36.894032 -120.180214 79 35026ft 473kts
23-May-20 12:48 36.897364 -120.014551 79 35027ft 479kts
23-May-20 12:49 36.912712 -119.851413 64 35027ft 464kts
23-May-20 12:50 36.959823 -119.702028 60 35029ft 461kts
23-May-20 12:51 37.007287 -119.552993 60 35029ft 462kts
23-May-20 12:52 37.054766 -119.403315 61 35031ft 463kts
23-May-20 12:53 37.102171 -119.253091 61 35052ft 464kts
23-May-20 12:54 37.149423 -119.102563 61 35077ft 466kts
23-May-20 12:55 37.196802 -118.950820 62 35104ft 468kts
23-May-20 12:56 37.244253 -118.798024 62 35121ft 470kts
23-May-20 12:57 37.291655 -118.644556 63 35119ft 472kts
23-May-20 12:58 37.338972 -118.490509 64 35103ft 474kts
23-May-20 12:59 37.377883 -118.331683 77 35097ft 483kts
23-May-20 13:00 37.387661 -118.162620 82 35098ft 485kts
23-May-20 13:01 37.396350 -117.992869 82 35098ft 486kts
23-May-20 13:02 37.404795 -117.822880 83 35098ft 488kts
23-May-20 13:03 37.413008 -117.652392 84 35100ft 489kts
23-May-20 13:04 37.421031 -117.480759 84 35105ft 491kts
23-May-20 13:05 37.406740 -117.310812 112 35105ft 497kts
23-May-20 13:06 37.319347 -117.185572 153 33110ft 470kts
23-May-20 13:07 37.209520 -117.093363 146 31158ft 480kts
23-May-20 13:08 37.098931 -116.997945 147 29206ft 484kts
23-May-20 13:09 36.986641 -116.903181 148 27245ft 488kts
23-May-20 13:10 36.873074 -116.808010 148 25273ft 493kts
23-May-20 13:11 36.766926 -116.699974 131 24072ft 492kts
23-May-20 13:12 36.676897 -116.571020 132 24059ft 494kts
23-May-20 13:13 36.586257 -116.442256 132 24059ft 494kts
23-May-20 13:14 36.495388 -116.313721 132 24059ft 494kts
23-May-20 13:15 36.404525 -116.185688 132 24059ft 494kts
23-May-20 13:16 36.313539 -116.057967 133 24055ft 493kts
23-May-20 13:18 36.225756 -115.935185 133 22292ft 459kts
23-May-20 13:19 36.170583 -115.806319 112 20090ft 365kts
23-May-20 13:20 36.135517 -115.697540 112 17884ft 334kts
23-May-20 13:21 36.100952 -115.590485 112 16070ft 328kts
23-May-20 13:22 36.067536 -115.489654 114 14279ft 303kts
23-May-20 13:23 36.039469 -115.399711 109 11607ft 269kts
23-May-20 13:24 36.026423 -115.313333 95 9134ft 242kts
23-May-20 13:25 36.021180 -115.241195 86 5273ft 175kts
23-May-20 13:26 36.039681 -115.193214 40 3325ft 150kts
23-May-20 13:27 36.072879 -115.171826 23 2317ft 122kts
23-May-20 13:28 36.089243 -115.163205 308 2184ft 14kts
23-May-20 13:29 36.088928 -115.165001 207 2184ft 28kts
23-May-20 13:30 36.081246 -115.171258 237 2184ft 16kts
23-May-20 13:31 36.080886 -115.171105 89 2184ft 0kts

Navigation Log

Ident Type
Flight plan parsing failed, navigation log unavailable